sensor_id;sensor_type;location;lat;lon;timestamp;P1;durP1;ratioP1;P2;durP2;ratioP2
4971;SDS011;2501;51.214;6.768;2023-03-09T00:02:02;47.45;;;24.98;;
4971;SDS011;2501;51.214;6.768;2023-03-09T00:04:31;51.03;;;25.80;;
4971;SDS011;2501;51.214;6.768;2023-03-09T00:06:59;50.60;;;27.05;;
4971;SDS011;2501;51.214;6.768;2023-03-09T00:09:28;46.05;;;24.05;;
4971;SDS011;2501;51.214;6.768;2023-03-09T00:11:56;46.40;;;25.30;;
4971;SDS011;2501;51.214;6.768;2023-03-09T00:14:25;45.33;;;25.55;;
4971;SDS011;2501;51.214;6.768;2023-03-09T00:16:53;45.22;;;25.17;;
4971;SDS011;2501;51.214;6.768;2023-03-09T00:19:25;44.92;;;24.90;;
4971;SDS011;2501;51.214;6.768;2023-03-09T00:21:56;45.80;;;25.25;;
4971;SDS011;2501;51.214;6.768;2023-03-09T00:24:26;47.15;;;26.15;;
4971;SDS011;2501;51.214;6.768;2023-03-09T00:26:56;45.90;;;25.90;;
4971;SDS011;2501;51.214;6.768;2023-03-09T00:29:27;47.22;;;24.88;;
4971;SDS011;2501;51.214;6.768;2023-03-09T00:31:57;43.27;;;23.73;;
4971;SDS011;2501;51.214;6.768;2023-03-09T00:34:28;45.45;;;24.70;;
4971;SDS011;2501;51.214;6.768;2023-03-09T00:36:57;44.75;;;23.85;;
4971;SDS011;2501;51.214;6.768;2023-03-09T00:39:25;44.33;;;22.98;;
4971;SDS011;2501;51.214;6.768;2023-03-09T00:41:54;46.47;;;25.15;;
4971;SDS011;2501;51.214;6.768;2023-03-09T00:44:22;52.78;;;26.38;;
4971;SDS011;2501;51.214;6.768;2023-03-09T00:46:51;47.65;;;25.13;;
4971;SDS011;2501;51.214;6.768;2023-03-09T00:49:19;45.80;;;24.55;;
4971;SDS011;2501;51.214;6.768;2023-03-09T00:51:50;44.60;;;23.35;;
4971;SDS011;2501;51.214;6.768;2023-03-09T00:54:18;44.95;;;23.95;;
4971;SDS011;2501;51.214;6.768;2023-03-09T00:56:47;41.03;;;22.48;;
4971;SDS011;2501;51.214;6.768;2023-03-09T00:59:15;39.17;;;22.40;;
4971;SDS011;2501;51.214;6.768;2023-03-09T01:01:44;37.60;;;21.33;;
4971;SDS011;2501;51.214;6.768;2023-03-09T01:04:12;40.33;;;22.23;;
4971;SDS011;2501;51.214;6.768;2023-03-09T01:06:40;40.95;;;22.90;;
4971;SDS011;2501;51.214;6.768;2023-03-09T01:09:11;40.83;;;23.42;;
4971;SDS011;2501;51.214;6.768;2023-03-09T01:11:40;38.72;;;21.65;;
4971;SDS011;2501;51.214;6.768;2023-03-09T01:14:08;36.42;;;22.02;;
4971;SDS011;2501;51.214;6.768;2023-03-09T01:16:36;36.83;;;21.55;;
4971;SDS011;2501;51.214;6.768;2023-03-09T01:19:05;36.88;;;22.05;;
4971;SDS011;2501;51.214;6.768;2023-03-09T01:21:33;39.38;;;23.02;;
4971;SDS011;2501;51.214;6.768;2023-03-09T01:24:02;36.97;;;21.95;;
4971;SDS011;2501;51.214;6.768;2023-03-09T01:26:33;34.20;;;19.42;;
4971;SDS011;2501;51.214;6.768;2023-03-09T01:29:01;34.60;;;20.08;;
4971;SDS011;2501;51.214;6.768;2023-03-09T01:31:30;33.40;;;21.02;;
4971;SDS011;2501;51.214;6.768;2023-03-09T01:33:58;32.88;;;18.67;;
4971;SDS011;2501;51.214;6.768;2023-03-09T01:36:27;32.88;;;19.92;;
4971;SDS011;2501;51.214;6.768;2023-03-09T01:38:55;35.97;;;20.90;;
4971;SDS011;2501;51.214;6.768;2023-03-09T01:41:23;32.75;;;19.80;;
4971;SDS011;2501;51.214;6.768;2023-03-09T01:43:54;30.35;;;19.10;;
4971;SDS011;2501;51.214;6.768;2023-03-09T01:46:37;34.15;;;18.85;;
4971;SDS011;2501;51.214;6.768;2023-03-09T01:49:17;29.85;;;18.90;;
4971;SDS011;2501;51.214;6.768;2023-03-09T01:51:52;35.45;;;21.05;;
4971;SDS011;2501;51.214;6.768;2023-03-09T01:54:25;31.25;;;18.00;;
4971;SDS011;2501;51.214;6.768;2023-03-09T01:56:57;33.15;;;19.85;;
4971;SDS011;2501;51.214;6.768;2023-03-09T01:59:31;31.02;;;17.42;;
4971;SDS011;2501;51.214;6.768;2023-03-09T02:02:01;30.60;;;18.08;;
4971;SDS011;2501;51.214;6.768;2023-03-09T02:04:32;27.98;;;17.40;;
4971;SDS011;2501;51.214;6.768;2023-03-09T02:07:04;29.97;;;16.97;;
4971;SDS011;2501;51.214;6.768;2023-03-09T02:09:35;28.10;;;17.92;;
4971;SDS011;2501;51.214;6.768;2023-03-09T02:12:07;29.65;;;18.00;;
4971;SDS011;2501;51.214;6.768;2023-03-09T02:14:39;28.30;;;16.20;;
4971;SDS011;2501;51.214;6.768;2023-03-09T02:17:09;31.95;;;18.90;;
4971;SDS011;2501;51.214;6.768;2023-03-09T02:19:40;27.98;;;16.63;;
4971;SDS011;2501;51.214;6.768;2023-03-09T02:22:21;35.40;;;20.80;;
4971;SDS011;2501;51.214;6.768;2023-03-09T02:24:53;29.00;;;18.42;;
4971;SDS011;2501;51.214;6.768;2023-03-09T02:27:30;26.92;;;17.40;;
4971;SDS011;2501;51.214;6.768;2023-03-09T02:30:01;28.23;;;18.05;;
4971;SDS011;2501;51.214;6.768;2023-03-09T02:32:31;28.75;;;17.75;;
4971;SDS011;2501;51.214;6.768;2023-03-09T02:35:00;30.08;;;18.75;;
4971;SDS011;2501;51.214;6.768;2023-03-09T02:37:30;31.43;;;19.20;;
4971;SDS011;2501;51.214;6.768;2023-03-09T02:40:01;30.80;;;18.08;;
4971;SDS011;2501;51.214;6.768;2023-03-09T02:42:38;30.83;;;18.93;;
4971;SDS011;2501;51.214;6.768;2023-03-09T02:45:07;35.30;;;20.27;;
4971;SDS011;2501;51.214;6.768;2023-03-09T02:47:38;35.53;;;19.17;;
4971;SDS011;2501;51.214;6.768;2023-03-09T02:50:07;32.83;;;18.30;;
4971;SDS011;2501;51.214;6.768;2023-03-09T02:52:37;33.95;;;20.75;;
4971;SDS011;2501;51.214;6.768;2023-03-09T02:55:05;32.30;;;19.45;;
4971;SDS011;2501;51.214;6.768;2023-03-09T02:57:35;33.08;;;20.02;;
4971;SDS011;2501;51.214;6.768;2023-03-09T03:00:06;30.98;;;18.60;;
4971;SDS011;2501;51.214;6.768;2023-03-09T03:02:36;31.38;;;19.73;;
4971;SDS011;2501;51.214;6.768;2023-03-09T03:05:06;35.00;;;20.20;;
4971;SDS011;2501;51.214;6.768;2023-03-09T03:07:35;35.33;;;19.70;;
4971;SDS011;2501;51.214;6.768;2023-03-09T03:10:04;33.53;;;19.90;;
4971;SDS011;2501;51.214;6.768;2023-03-09T03:12:33;34.17;;;20.40;;
4971;SDS011;2501;51.214;6.768;2023-03-09T03:15:05;36.00;;;20.45;;
4971;SDS011;2501;51.214;6.768;2023-03-09T03:17:34;39.08;;;21.20;;
4971;SDS011;2501;51.214;6.768;2023-03-09T03:20:03;38.17;;;21.38;;
4971;SDS011;2501;51.214;6.768;2023-03-09T03:22:37;40.05;;;21.88;;
4971;SDS011;2501;51.214;6.768;2023-03-09T03:25:06;37.80;;;21.30;;
4971;SDS011;2501;51.214;6.768;2023-03-09T03:27:35;38.78;;;22.95;;
4971;SDS011;2501;51.214;6.768;2023-03-09T03:30:06;42.37;;;22.73;;
4971;SDS011;2501;51.214;6.768;2023-03-09T03:32:36;44.72;;;23.25;;
4971;SDS011;2501;51.214;6.768;2023-03-09T03:35:05;43.20;;;21.88;;
4971;SDS011;2501;51.214;6.768;2023-03-09T03:37:34;43.28;;;23.48;;
4971;SDS011;2501;51.214;6.768;2023-03-09T03:40:03;43.83;;;22.98;;
4971;SDS011;2501;51.214;6.768;2023-03-09T03:42:33;45.35;;;23.67;;
4971;SDS011;2501;51.214;6.768;2023-03-09T03:45:02;43.72;;;23.65;;
4971;SDS011;2501;51.214;6.768;2023-03-09T03:47:33;43.47;;;23.15;;
4971;SDS011;2501;51.214;6.768;2023-03-09T03:50:02;44.78;;;24.40;;
4971;SDS011;2501;51.214;6.768;2023-03-09T03:52:31;44.92;;;24.02;;
4971;SDS011;2501;51.214;6.768;2023-03-09T03:54:59;49.78;;;25.58;;
4971;SDS011;2501;51.214;6.768;2023-03-09T03:57:28;50.55;;;24.40;;
4971;SDS011;2501;51.214;6.768;2023-03-09T03:59:56;48.30;;;25.23;;
4971;SDS011;2501;51.214;6.768;2023-03-09T04:02:25;52.70;;;26.65;;
4971;SDS011;2501;51.214;6.768;2023-03-09T04:04:56;57.88;;;27.02;;
4971;SDS011;2501;51.214;6.768;2023-03-09T04:07:24;55.30;;;27.40;;
4971;SDS011;2501;51.214;6.768;2023-03-09T04:09:53;59.60;;;27.40;;
4971;SDS011;2501;51.214;6.768;2023-03-09T04:12:21;61.33;;;27.98;;
4971;SDS011;2501;51.214;6.768;2023-03-09T04:14:50;66.72;;;29.40;;
4971;SDS011;2501;51.214;6.768;2023-03-09T04:17:18;66.32;;;29.95;;
4971;SDS011;2501;51.214;6.768;2023-03-09T04:19:46;63.88;;;29.55;;
4971;SDS011;2501;51.214;6.768;2023-03-09T04:22:17;72.28;;;31.15;;
4971;SDS011;2501;51.214;6.768;2023-03-09T04:24:47;72.43;;;30.92;;
4971;SDS011;2501;51.214;6.768;2023-03-09T04:27:16;69.90;;;29.50;;
4971;SDS011;2501;51.214;6.768;2023-03-09T04:29:44;70.13;;;29.05;;
4971;SDS011;2501;51.214;6.768;2023-03-09T04:32:13;69.05;;;29.10;;
4971;SDS011;2501;51.214;6.768;2023-03-09T04:34:41;67.38;;;29.55;;
4971;SDS011;2501;51.214;6.768;2023-03-09T04:37:10;70.37;;;30.13;;
4971;SDS011;2501;51.214;6.768;2023-03-09T04:39:42;64.10;;;29.17;;
4971;SDS011;2501;51.214;6.768;2023-03-09T04:42:10;69.70;;;30.20;;
4971;SDS011;2501;51.214;6.768;2023-03-09T04:44:39;68.03;;;29.60;;
4971;SDS011;2501;51.214;6.768;2023-03-09T04:47:07;65.18;;;29.13;;
4971;SDS011;2501;51.214;6.768;2023-03-09T04:49:37;69.05;;;31.05;;
4971;SDS011;2501;51.214;6.768;2023-03-09T04:52:06;70.78;;;30.63;;
4971;SDS011;2501;51.214;6.768;2023-03-09T04:54:35;68.13;;;30.13;;
4971;SDS011;2501;51.214;6.768;2023-03-09T04:57:06;69.80;;;30.90;;
4971;SDS011;2501;51.214;6.768;2023-03-09T04:59:35;71.25;;;29.80;;
4971;SDS011;2501;51.214;6.768;2023-03-09T05:02:04;70.33;;;31.27;;
4971;SDS011;2501;51.214;6.768;2023-03-09T05:04:32;66.15;;;29.80;;
4971;SDS011;2501;51.214;6.768;2023-03-09T05:07:03;59.13;;;27.23;;
4971;SDS011;2501;51.214;6.768;2023-03-09T05:09:32;58.63;;;29.13;;
4971;SDS011;2501;51.214;6.768;2023-03-09T05:12:01;61.58;;;28.42;;
4971;SDS011;2501;51.214;6.768;2023-03-09T05:14:32;49.50;;;24.83;;
4971;SDS011;2501;51.214;6.768;2023-03-09T05:17:00;55.67;;;26.25;;
4971;SDS011;2501;51.214;6.768;2023-03-09T05:19:29;57.72;;;26.55;;
4971;SDS011;2501;51.214;6.768;2023-03-09T05:22:01;65.82;;;28.52;;
4971;SDS011;2501;51.214;6.768;2023-03-09T05:24:30;64.25;;;29.13;;
4971;SDS011;2501;51.214;6.768;2023-03-09T05:26:59;71.88;;;30.50;;
4971;SDS011;2501;51.214;6.768;2023-03-09T05:29:27;68.88;;;31.55;;
4971;SDS011;2501;51.214;6.768;2023-03-09T05:31:58;68.30;;;30.50;;
4971;SDS011;2501;51.214;6.768;2023-03-09T05:34:26;74.25;;;32.10;;
4971;SDS011;2501;51.214;6.768;2023-03-09T05:36:55;66.63;;;30.90;;
4971;SDS011;2501;51.214;6.768;2023-03-09T05:39:24;61.10;;;28.05;;
4971;SDS011;2501;51.214;6.768;2023-03-09T05:41:52;58.67;;;24.90;;
4971;SDS011;2501;51.214;6.768;2023-03-09T05:44:21;70.80;;;31.25;;
4971;SDS011;2501;51.214;6.768;2023-03-09T05:46:50;65.30;;;30.50;;
4971;SDS011;2501;51.214;6.768;2023-03-09T05:49:21;68.85;;;31.27;;
4971;SDS011;2501;51.214;6.768;2023-03-09T05:51:52;69.90;;;31.73;;
4971;SDS011;2501;51.214;6.768;2023-03-09T05:54:21;78.60;;;33.40;;
4971;SDS011;2501;51.214;6.768;2023-03-09T05:56:52;70.10;;;32.53;;
4971;SDS011;2501;51.214;6.768;2023-03-09T05:59:22;77.60;;;33.90;;
4971;SDS011;2501;51.214;6.768;2023-03-09T06:01:50;72.90;;;32.75;;
4971;SDS011;2501;51.214;6.768;2023-03-09T06:04:21;68.63;;;31.67;;
4971;SDS011;2501;51.214;6.768;2023-03-09T06:06:50;74.88;;;32.00;;
4971;SDS011;2501;51.214;6.768;2023-03-09T06:09:18;77.78;;;30.65;;
4971;SDS011;2501;51.214;6.768;2023-03-09T06:11:46;60.40;;;28.20;;
4971;SDS011;2501;51.214;6.768;2023-03-09T06:14:15;71.50;;;32.05;;
4971;SDS011;2501;51.214;6.768;2023-03-09T06:16:43;70.25;;;31.27;;
4971;SDS011;2501;51.214;6.768;2023-03-09T06:19:12;70.20;;;31.27;;
4971;SDS011;2501;51.214;6.768;2023-03-09T06:21:45;76.45;;;30.95;;
4971;SDS011;2501;51.214;6.768;2023-03-09T06:24:13;91.00;;;31.77;;
4971;SDS011;2501;51.214;6.768;2023-03-09T06:26:42;98.80;;;34.25;;
4971;SDS011;2501;51.214;6.768;2023-03-09T06:29:10;81.55;;;33.05;;
4971;SDS011;2501;51.214;6.768;2023-03-09T06:31:38;156.57;;;37.33;;
4971;SDS011;2501;51.214;6.768;2023-03-09T06:34:07;108.38;;;33.55;;
4971;SDS011;2501;51.214;6.768;2023-03-09T06:36:35;150.93;;;36.60;;
4971;SDS011;2501;51.214;6.768;2023-03-09T06:39:06;129.80;;;37.73;;
4971;SDS011;2501;51.214;6.768;2023-03-09T06:41:35;113.53;;;38.33;;
4971;SDS011;2501;51.214;6.768;2023-03-09T06:44:03;80.35;;;33.42;;
4971;SDS011;2501;51.214;6.768;2023-03-09T06:46:32;114.90;;;37.70;;
4971;SDS011;2501;51.214;6.768;2023-03-09T06:49:00;115.95;;;34.22;;
4971;SDS011;2501;51.214;6.768;2023-03-09T06:51:29;74.50;;;32.45;;
4971;SDS011;2501;51.214;6.768;2023-03-09T06:53:57;87.65;;;34.50;;
4971;SDS011;2501;51.214;6.768;2023-03-09T06:56:28;75.00;;;30.73;;
4971;SDS011;2501;51.214;6.768;2023-03-09T06:58:57;72.88;;;32.95;;
4971;SDS011;2501;51.214;6.768;2023-03-09T07:01:25;75.75;;;33.25;;
4971;SDS011;2501;51.214;6.768;2023-03-09T07:03:54;81.80;;;33.80;;
4971;SDS011;2501;51.214;6.768;2023-03-09T07:06:22;98.80;;;35.28;;
4971;SDS011;2501;51.214;6.768;2023-03-09T07:08:50;109.18;;;36.80;;
4971;SDS011;2501;51.214;6.768;2023-03-09T07:11:19;93.93;;;36.08;;
4971;SDS011;2501;51.214;6.768;2023-03-09T07:13:50;94.60;;;36.20;;
4971;SDS011;2501;51.214;6.768;2023-03-09T07:16:19;85.30;;;34.90;;
4971;SDS011;2501;51.214;6.768;2023-03-09T07:18:50;86.00;;;34.60;;
4971;SDS011;2501;51.214;6.768;2023-03-09T07:21:18;74.50;;;33.55;;
4971;SDS011;2501;51.214;6.768;2023-03-09T07:23:46;91.45;;;35.92;;
4971;SDS011;2501;51.214;6.768;2023-03-09T07:26:15;72.10;;;32.33;;
4971;SDS011;2501;51.214;6.768;2023-03-09T07:28:45;84.10;;;33.97;;
4971;SDS011;2501;51.214;6.768;2023-03-09T07:31:17;103.22;;;37.00;;
4971;SDS011;2501;51.214;6.768;2023-03-09T07:33:47;94.38;;;39.50;;
4971;SDS011;2501;51.214;6.768;2023-03-09T07:36:16;91.78;;;35.55;;
4971;SDS011;2501;51.214;6.768;2023-03-09T07:38:44;86.43;;;35.10;;
4971;SDS011;2501;51.214;6.768;2023-03-09T07:41:13;81.78;;;36.22;;
4971;SDS011;2501;51.214;6.768;2023-03-09T07:43:41;95.35;;;38.85;;
4971;SDS011;2501;51.214;6.768;2023-03-09T07:46:12;93.82;;;38.97;;
4971;SDS011;2501;51.214;6.768;2023-03-09T07:48:47;92.47;;;39.08;;
4971;SDS011;2501;51.214;6.768;2023-03-09T07:51:16;100.28;;;40.05;;
4971;SDS011;2501;51.214;6.768;2023-03-09T07:53:46;98.90;;;38.87;;
4971;SDS011;2501;51.214;6.768;2023-03-09T07:56:15;102.43;;;40.78;;
4971;SDS011;2501;51.214;6.768;2023-03-09T07:58:43;94.97;;;39.20;;
4971;SDS011;2501;51.214;6.768;2023-03-09T08:01:12;93.03;;;38.85;;
4971;SDS011;2501;51.214;6.768;2023-03-09T08:03:42;79.63;;;35.08;;
4971;SDS011;2501;51.214;6.768;2023-03-09T08:06:14;81.30;;;35.00;;
4971;SDS011;2501;51.214;6.768;2023-03-09T08:08:44;88.40;;;37.70;;
4971;SDS011;2501;51.214;6.768;2023-03-09T08:11:13;82.45;;;36.13;;
4971;SDS011;2501;51.214;6.768;2023-03-09T08:13:42;75.82;;;33.15;;
4971;SDS011;2501;51.214;6.768;2023-03-09T08:16:11;80.05;;;36.30;;
4971;SDS011;2501;51.214;6.768;2023-03-09T08:18:39;62.58;;;29.92;;
4971;SDS011;2501;51.214;6.768;2023-03-09T08:21:09;125.60;;;35.00;;
4971;SDS011;2501;51.214;6.768;2023-03-09T08:23:41;95.10;;;32.97;;
4971;SDS011;2501;51.214;6.768;2023-03-09T08:26:10;75.80;;;31.48;;
4971;SDS011;2501;51.214;6.768;2023-03-09T08:28:40;65.50;;;29.60;;
4971;SDS011;2501;51.214;6.768;2023-03-09T08:31:10;64.07;;;29.48;;
4971;SDS011;2501;51.214;6.768;2023-03-09T08:33:41;61.00;;;29.08;;
4971;SDS011;2501;51.214;6.768;2023-03-09T08:36:11;64.72;;;29.25;;
4971;SDS011;2501;51.214;6.768;2023-03-09T08:38:44;80.60;;;29.40;;
4971;SDS011;2501;51.214;6.768;2023-03-09T08:41:13;77.03;;;31.25;;
4971;SDS011;2501;51.214;6.768;2023-03-09T08:43:42;82.32;;;35.75;;
4971;SDS011;2501;51.214;6.768;2023-03-09T08:46:11;99.68;;;33.17;;
4971;SDS011;2501;51.214;6.768;2023-03-09T08:48:40;115.20;;;37.17;;
4971;SDS011;2501;51.214;6.768;2023-03-09T08:51:10;76.05;;;34.40;;
4971;SDS011;2501;51.214;6.768;2023-03-09T08:53:39;116.75;;;38.88;;
4971;SDS011;2501;51.214;6.768;2023-03-09T08:56:10;123.72;;;38.35;;
4971;SDS011;2501;51.214;6.768;2023-03-09T08:58:40;76.80;;;32.90;;
4971;SDS011;2501;51.214;6.768;2023-03-09T09:01:08;75.20;;;32.55;;
4971;SDS011;2501;51.214;6.768;2023-03-09T09:03:37;123.25;;;36.58;;
4971;SDS011;2501;51.214;6.768;2023-03-09T09:06:07;74.53;;;31.70;;
4971;SDS011;2501;51.214;6.768;2023-03-09T09:08:36;69.82;;;33.08;;
4971;SDS011;2501;51.214;6.768;2023-03-09T09:11:06;68.50;;;31.73;;
4971;SDS011;2501;51.214;6.768;2023-03-09T09:13:37;66.18;;;31.15;;
4971;SDS011;2501;51.214;6.768;2023-03-09T09:16:07;69.60;;;31.77;;
4971;SDS011;2501;51.214;6.768;2023-03-09T09:18:36;69.35;;;33.22;;
4971;SDS011;2501;51.214;6.768;2023-03-09T09:21:05;74.25;;;33.40;;
4971;SDS011;2501;51.214;6.768;2023-03-09T09:23:35;74.78;;;32.50;;
4971;SDS011;2501;51.214;6.768;2023-03-09T09:26:04;69.20;;;33.00;;
4971;SDS011;2501;51.214;6.768;2023-03-09T09:28:33;68.00;;;32.67;;
4971;SDS011;2501;51.214;6.768;2023-03-09T09:31:04;64.43;;;30.48;;
4971;SDS011;2501;51.214;6.768;2023-03-09T09:33:34;63.35;;;30.67;;
4971;SDS011;2501;51.214;6.768;2023-03-09T09:36:04;73.33;;;31.10;;
4971;SDS011;2501;51.214;6.768;2023-03-09T09:38:36;57.40;;;27.42;;
4971;SDS011;2501;51.214;6.768;2023-03-09T09:41:06;117.95;;;34.33;;
4971;SDS011;2501;51.214;6.768;2023-03-09T09:43:39;115.13;;;34.85;;
4971;SDS011;2501;51.214;6.768;2023-03-09T09:46:12;171.77;;;35.67;;
4971;SDS011;2501;51.214;6.768;2023-03-09T09:48:43;136.65;;;35.25;;
4971;SDS011;2501;51.214;6.768;2023-03-09T09:51:19;67.17;;;29.47;;
4971;SDS011;2501;51.214;6.768;2023-03-09T09:54:03;64.00;;;29.70;;
4971;SDS011;2501;51.214;6.768;2023-03-09T09:56:41;56.97;;;29.08;;
4971;SDS011;2501;51.214;6.768;2023-03-09T09:59:15;59.40;;;28.95;;
4971;SDS011;2501;51.214;6.768;2023-03-09T10:01:52;60.40;;;29.33;;
4971;SDS011;2501;51.214;6.768;2023-03-09T10:04:26;69.78;;;29.80;;
4971;SDS011;2501;51.214;6.768;2023-03-09T10:07:00;62.30;;;28.05;;
4971;SDS011;2501;51.214;6.768;2023-03-09T10:09:40;85.22;;;31.35;;
4971;SDS011;2501;51.214;6.768;2023-03-09T10:12:13;68.82;;;30.60;;
4971;SDS011;2501;51.214;6.768;2023-03-09T10:14:43;77.43;;;31.35;;
4971;SDS011;2501;51.214;6.768;2023-03-09T10:17:20;76.70;;;30.08;;
4971;SDS011;2501;51.214;6.768;2023-03-09T10:19:54;70.05;;;31.65;;
4971;SDS011;2501;51.214;6.768;2023-03-09T10:22:27;96.18;;;32.75;;
4971;SDS011;2501;51.214;6.768;2023-03-09T10:24:56;85.13;;;33.33;;
4971;SDS011;2501;51.214;6.768;2023-03-09T10:27:26;135.13;;;37.50;;
4971;SDS011;2501;51.214;6.768;2023-03-09T10:30:00;92.13;;;34.38;;
4971;SDS011;2501;51.214;6.768;2023-03-09T10:32:37;139.55;;;33.83;;
4971;SDS011;2501;51.214;6.768;2023-03-09T10:35:22;89.68;;;32.17;;
4971;SDS011;2501;51.214;6.768;2023-03-09T10:37:55;76.18;;;31.67;;
4971;SDS011;2501;51.214;6.768;2023-03-09T10:40:24;73.55;;;31.67;;
4971;SDS011;2501;51.214;6.768;2023-03-09T10:42:56;75.15;;;30.35;;
4971;SDS011;2501;51.214;6.768;2023-03-09T10:45:25;103.20;;;33.50;;
4971;SDS011;2501;51.214;6.768;2023-03-09T10:47:59;95.25;;;34.05;;
4971;SDS011;2501;51.214;6.768;2023-03-09T10:50:32;106.55;;;34.20;;
4971;SDS011;2501;51.214;6.768;2023-03-09T10:53:16;70.43;;;31.87;;
4971;SDS011;2501;51.214;6.768;2023-03-09T10:55:51;69.05;;;32.38;;
4971;SDS011;2501;51.214;6.768;2023-03-09T10:58:22;70.53;;;31.97;;
4971;SDS011;2501;51.214;6.768;2023-03-09T11:00:55;65.47;;;29.98;;
4971;SDS011;2501;51.214;6.768;2023-03-09T11:03:35;62.70;;;28.85;;
4971;SDS011;2501;51.214;6.768;2023-03-09T11:06:08;59.40;;;29.67;;
4971;SDS011;2501;51.214;6.768;2023-03-09T11:08:52;61.42;;;28.52;;
4971;SDS011;2501;51.214;6.768;2023-03-09T11:11:24;65.22;;;31.70;;
4971;SDS011;2501;51.214;6.768;2023-03-09T11:13:54;63.80;;;29.45;;
4971;SDS011;2501;51.214;6.768;2023-03-09T11:16:24;66.45;;;30.17;;
4971;SDS011;2501;51.214;6.768;2023-03-09T11:19:08;72.32;;;31.77;;
4971;SDS011;2501;51.214;6.768;2023-03-09T11:21:39;60.42;;;29.92;;
4971;SDS011;2501;51.214;6.768;2023-03-09T11:24:11;72.55;;;29.90;;
4971;SDS011;2501;51.214;6.768;2023-03-09T11:26:42;68.93;;;30.35;;
4971;SDS011;2501;51.214;6.768;2023-03-09T11:29:18;65.53;;;29.30;;
4971;SDS011;2501;51.214;6.768;2023-03-09T11:31:54;62.03;;;27.98;;
4971;SDS011;2501;51.214;6.768;2023-03-09T11:34:27;62.28;;;27.60;;
4971;SDS011;2501;51.214;6.768;2023-03-09T11:37:00;56.70;;;27.00;;
4971;SDS011;2501;51.214;6.768;2023-03-09T11:39:35;60.80;;;29.73;;
4971;SDS011;2501;51.214;6.768;2023-03-09T11:42:09;65.40;;;30.33;;
4971;SDS011;2501;51.214;6.768;2023-03-09T11:44:42;66.22;;;29.55;;
4971;SDS011;2501;51.214;6.768;2023-03-09T11:47:23;69.13;;;31.57;;
4971;SDS011;2501;51.214;6.768;2023-03-09T11:49:59;60.28;;;26.95;;
4971;SDS011;2501;51.214;6.768;2023-03-09T11:52:34;47.78;;;24.02;;
4971;SDS011;2501;51.214;6.768;2023-03-09T11:55:12;52.07;;;26.00;;
4971;SDS011;2501;51.214;6.768;2023-03-09T11:57:46;49.47;;;25.20;;
4971;SDS011;2501;51.214;6.768;2023-03-09T12:00:17;59.00;;;26.30;;
4971;SDS011;2501;51.214;6.768;2023-03-09T12:02:53;60.87;;;27.57;;
4971;SDS011;2501;51.214;6.768;2023-03-09T12:05:30;53.33;;;27.08;;
4971;SDS011;2501;51.214;6.768;2023-03-09T12:08:03;54.65;;;27.05;;
4971;SDS011;2501;51.214;6.768;2023-03-09T12:10:39;59.30;;;27.52;;
4971;SDS011;2501;51.214;6.768;2023-03-09T12:13:12;72.30;;;33.17;;
4971;SDS011;2501;51.214;6.768;2023-03-09T12:15:47;58.80;;;28.42;;
4971;SDS011;2501;51.214;6.768;2023-03-09T12:18:20;54.10;;;27.77;;
4971;SDS011;2501;51.214;6.768;2023-03-09T12:20:56;58.40;;;28.88;;
4971;SDS011;2501;51.214;6.768;2023-03-09T12:26:19;59.13;;;28.20;;
4971;SDS011;2501;51.214;6.768;2023-03-09T12:29:02;54.85;;;26.58;;
4971;SDS011;2501;51.214;6.768;2023-03-09T12:31:44;53.03;;;26.20;;
4971;SDS011;2501;51.214;6.768;2023-03-09T12:34:38;58.65;;;27.90;;
4971;SDS011;2501;51.214;6.768;2023-03-09T12:40:20;56.00;;;27.30;;
4971;SDS011;2501;51.214;6.768;2023-03-09T12:42:57;64.30;;;30.25;;
4971;SDS011;2501;51.214;6.768;2023-03-09T12:45:44;58.85;;;29.10;;
4971;SDS011;2501;51.214;6.768;2023-03-09T12:48:20;61.78;;;28.40;;
4971;SDS011;2501;51.214;6.768;2023-03-09T12:50:53;60.97;;;27.55;;
4971;SDS011;2501;51.214;6.768;2023-03-09T12:53:35;51.03;;;26.30;;
4971;SDS011;2501;51.214;6.768;2023-03-09T12:56:26;52.15;;;25.80;;
4971;SDS011;2501;51.214;6.768;2023-03-09T12:58:58;57.78;;;25.88;;
4971;SDS011;2501;51.214;6.768;2023-03-09T13:01:35;45.70;;;24.77;;
4971;SDS011;2501;51.214;6.768;2023-03-09T13:04:10;55.80;;;25.40;;
4971;SDS011;2501;51.214;6.768;2023-03-09T13:06:42;46.43;;;25.07;;
4971;SDS011;2501;51.214;6.768;2023-03-09T13:09:19;48.60;;;25.77;;
4971;SDS011;2501;51.214;6.768;2023-03-09T13:11:57;49.13;;;25.40;;
4971;SDS011;2501;51.214;6.768;2023-03-09T13:17:34;52.53;;;26.03;;
4971;SDS011;2501;51.214;6.768;2023-03-09T13:20:15;54.25;;;26.77;;
4971;SDS011;2501;51.214;6.768;2023-03-09T13:23:02;57.35;;;25.50;;
4971;SDS011;2501;51.214;6.768;2023-03-09T13:25:39;49.47;;;24.40;;
4971;SDS011;2501;51.214;6.768;2023-03-09T13:31:03;43.38;;;22.95;;
4971;SDS011;2501;51.214;6.768;2023-03-09T13:33:36;38.70;;;20.13;;
4971;SDS011;2501;51.214;6.768;2023-03-09T13:38:53;50.55;;;23.13;;
4971;SDS011;2501;51.214;6.768;2023-03-09T13:41:26;40.40;;;20.60;;
4971;SDS011;2501;51.214;6.768;2023-03-09T13:43:55;39.95;;;20.80;;
4971;SDS011;2501;51.214;6.768;2023-03-09T13:46:25;43.67;;;20.67;;
4971;SDS011;2501;51.214;6.768;2023-03-09T13:48:56;42.00;;;22.23;;
4971;SDS011;2501;51.214;6.768;2023-03-09T13:51:37;42.03;;;23.30;;
4971;SDS011;2501;51.214;6.768;2023-03-09T13:54:27;45.20;;;22.77;;
4971;SDS011;2501;51.214;6.768;2023-03-09T13:57:01;47.60;;;22.58;;
4971;SDS011;2501;51.214;6.768;2023-03-09T13:59:40;47.73;;;24.13;;
4971;SDS011;2501;51.214;6.768;2023-03-09T14:02:13;54.38;;;23.65;;
4971;SDS011;2501;51.214;6.768;2023-03-09T14:04:45;54.63;;;25.40;;
4971;SDS011;2501;51.214;6.768;2023-03-09T14:07:15;56.78;;;25.80;;
4971;SDS011;2501;51.214;6.768;2023-03-09T14:09:50;55.67;;;26.58;;
4971;SDS011;2501;51.214;6.768;2023-03-09T14:12:26;62.22;;;27.98;;
4971;SDS011;2501;51.214;6.768;2023-03-09T14:14:56;62.65;;;27.00;;
4971;SDS011;2501;51.214;6.768;2023-03-09T14:17:27;55.25;;;24.95;;
4971;SDS011;2501;51.214;6.768;2023-03-09T14:19:56;50.72;;;24.65;;
4971;SDS011;2501;51.214;6.768;2023-03-09T14:22:28;57.20;;;26.17;;
4971;SDS011;2501;51.214;6.768;2023-03-09T14:24:59;48.35;;;25.55;;
4971;SDS011;2501;51.214;6.768;2023-03-09T14:27:32;45.80;;;22.77;;
4971;SDS011;2501;51.214;6.768;2023-03-09T14:33:11;40.78;;;20.48;;
4971;SDS011;2501;51.214;6.768;2023-03-09T14:35:49;36.10;;;19.73;;
4971;SDS011;2501;51.214;6.768;2023-03-09T14:38:18;37.57;;;19.83;;
4971;SDS011;2501;51.214;6.768;2023-03-09T14:40:57;41.35;;;21.42;;
4971;SDS011;2501;51.214;6.768;2023-03-09T14:43:38;37.05;;;20.60;;
4971;SDS011;2501;51.214;6.768;2023-03-09T14:46:09;38.60;;;21.10;;
4971;SDS011;2501;51.214;6.768;2023-03-09T14:48:43;41.67;;;21.50;;
4971;SDS011;2501;51.214;6.768;2023-03-09T14:51:13;42.63;;;23.50;;
4971;SDS011;2501;51.214;6.768;2023-03-09T14:53:52;42.83;;;23.65;;
4971;SDS011;2501;51.214;6.768;2023-03-09T14:56:23;40.10;;;21.52;;
4971;SDS011;2501;51.214;6.768;2023-03-09T14:58:55;45.78;;;21.95;;
4971;SDS011;2501;51.214;6.768;2023-03-09T15:01:26;36.63;;;21.33;;
4971;SDS011;2501;51.214;6.768;2023-03-09T15:03:57;30.70;;;18.90;;
4971;SDS011;2501;51.214;6.768;2023-03-09T15:06:25;34.42;;;19.00;;
4971;SDS011;2501;51.214;6.768;2023-03-09T15:08:56;35.05;;;19.92;;
4971;SDS011;2501;51.214;6.768;2023-03-09T15:11:24;38.33;;;21.10;;
4971;SDS011;2501;51.214;6.768;2023-03-09T15:13:55;36.30;;;21.98;;
4971;SDS011;2501;51.214;6.768;2023-03-09T15:16:24;40.33;;;22.80;;
4971;SDS011;2501;51.214;6.768;2023-03-09T15:18:53;41.08;;;23.70;;
4971;SDS011;2501;51.214;6.768;2023-03-09T15:21:21;42.35;;;23.30;;
4971;SDS011;2501;51.214;6.768;2023-03-09T15:23:49;46.67;;;25.83;;
4971;SDS011;2501;51.214;6.768;2023-03-09T15:26:18;41.13;;;23.05;;
4971;SDS011;2501;51.214;6.768;2023-03-09T15:28:46;34.80;;;21.92;;
4971;SDS011;2501;51.214;6.768;2023-03-09T15:31:17;41.10;;;22.83;;